createdAt,value
2022-09-27T10:52:01.160Z,99.99
2022-09-27T10:53:01.114Z,99.99
2022-09-27T10:54:01.098Z,99.99
2022-09-27T10:55:01.075Z,99.99
2022-09-27T10:56:01.068Z,99.99
2022-09-27T10:57:01.039Z,99.99
2022-09-27T10:58:01.031Z,99.99
2022-09-27T10:59:01.009Z,99.99
2022-09-27T11:00:00.993Z,99.99
2022-09-27T11:01:01.004Z,99.99
2022-09-27T11:02:00.944Z,99.99
2022-09-27T11:03:00.934Z,99.99
2022-09-27T11:04:00.909Z,99.99
2022-09-27T11:05:00.928Z,99.99
2022-09-27T11:20:50.021Z,99.99
2022-09-27T11:21:49.952Z,99.99
2022-09-27T11:22:49.939Z,99.99
2022-09-27T11:23:49.915Z,99.99
2022-09-27T11:24:49.888Z,99.99
2022-09-27T11:25:49.874Z,99.99
2022-09-27T11:26:49.867Z,99.99
2022-09-27T11:39:27.868Z,99.99
2022-09-27T11:40:27.879Z,99.99
2022-09-27T12:11:16.542Z,99.99
2022-09-27T12:12:16.503Z,99.99
2022-09-27T12:13:16.496Z,99.99
2022-09-27T12:14:16.475Z,99.99
2022-09-27T12:15:16.449Z,99.99
2022-09-27T12:16:16.469Z,99.99
2022-09-27T12:17:16.409Z,99.99
2022-09-27T12:18:16.391Z,99.99
2022-09-27T12:19:16.417Z,99.99
2022-09-27T12:20:16.436Z,99.99
2022-09-27T12:21:16.353Z,99.99
2022-09-27T12:22:16.327Z,99.99
2022-09-27T12:23:16.311Z,99.99
2022-09-27T12:24:16.285Z,99.99
2022-09-27T12:25:20.475Z,99.99
2022-09-27T12:26:16.266Z,99.99
2022-09-27T12:27:16.230Z,99.99
2022-09-27T12:28:16.220Z,99.99
2022-09-27T12:29:16.237Z,99.99
2022-09-27T12:30:16.225Z,99.99
2022-09-27T12:31:30.634Z,99.99
2022-09-27T12:32:16.190Z,99.99
2022-09-27T12:33:16.137Z,99.99
2022-09-27T12:34:19.516Z,99.99
2022-09-27T12:35:16.094Z,99.99
2022-09-27T12:36:16.087Z,99.99
2022-09-27T12:37:16.059Z,99.99
2022-09-27T12:38:16.041Z,99.99
2022-09-27T12:39:16.149Z,99.99
2022-09-27T12:40:16.194Z,99.99
2022-09-27T12:41:16.003Z,99.99
2022-09-27T12:42:15.976Z,99.99
2022-09-27T12:43:15.959Z,99.99
2022-09-27T12:44:16.061Z,99.99
2022-09-27T12:45:15.931Z,99.99
2022-09-27T12:46:15.954Z,99.99
2022-09-27T12:47:15.890Z,99.99
2022-09-27T12:48:15.881Z,99.99
2022-09-27T12:49:15.924Z,99.99
2022-09-27T12:50:15.851Z,99.99
2022-09-27T12:51:15.834Z,99.99
2022-09-27T12:52:15.816Z,99.99
2022-09-27T12:53:15.792Z,99.99
2022-09-27T12:54:15.778Z,99.99
2022-09-27T12:55:15.765Z,99.99
2022-09-27T13:03:26.574Z,99.99
2022-09-27T13:52:58.838Z,99.99
2022-09-27T13:53:58.807Z,99.99
2022-09-27T13:54:58.788Z,99.99
2022-09-27T13:55:58.766Z,99.99
2022-09-27T13:56:58.757Z,99.99
2022-09-27T13:57:58.727Z,99.99
2022-09-27T14:32:10.043Z,0.00
2022-09-27T14:33:09.995Z,0.85
2022-09-27T14:34:09.985Z,5.05
2022-09-27T14:35:09.960Z,15.45
2022-09-27T14:36:09.946Z,20.99
2022-09-27T14:37:09.918Z,28.64
2022-09-27T14:38:33.050Z,58.20
2022-09-27T14:39:09.906Z,66.60
2022-09-27T14:40:09.906Z,66.69
2022-09-27T14:41:09.830Z,72.83
2022-09-27T14:42:09.837Z,85.49
2022-09-27T14:43:09.791Z,99.61
2022-09-27T14:44:09.805Z,99.71
2022-09-27T14:45:09.755Z,99.99
2022-09-27T14:46:09.756Z,99.99
2022-09-27T14:47:09.737Z,99.52
2022-09-27T14:48:09.706Z,99.99
2022-09-27T14:49:09.714Z,99.99
